sensor_id;sensor_type;location;lat;lon;timestamp;P1;durP1;ratioP1;P2;durP2;ratioP2
12972;SDS011;6551;51.056;9.466;2023-01-23T00:01:21;14.20;;;8.90;;
12972;SDS011;6551;51.056;9.466;2023-01-23T00:03:53;12.43;;;7.87;;
12972;SDS011;6551;51.056;9.466;2023-01-23T00:06:20;13.40;;;8.77;;
12972;SDS011;6551;51.056;9.466;2023-01-23T00:08:47;13.23;;;8.67;;
12972;SDS011;6551;51.056;9.466;2023-01-23T00:11:14;12.10;;;9.10;;
12972;SDS011;6551;51.056;9.466;2023-01-23T00:13:44;12.07;;;8.57;;
12972;SDS011;6551;51.056;9.466;2023-01-23T00:16:14;10.37;;;7.50;;
12972;SDS011;6551;51.056;9.466;2023-01-23T00:18:44;10.73;;;7.60;;
12972;SDS011;6551;51.056;9.466;2023-01-23T00:21:13;11.27;;;8.03;;
12972;SDS011;6551;51.056;9.466;2023-01-23T00:23:47;11.73;;;8.53;;
12972;SDS011;6551;51.056;9.466;2023-01-23T00:26:17;10.87;;;8.03;;
12972;SDS011;6551;51.056;9.466;2023-01-23T00:28:45;12.37;;;7.97;;
12972;SDS011;6551;51.056;9.466;2023-01-23T00:31:16;13.43;;;9.33;;
12972;SDS011;6551;51.056;9.466;2023-01-23T00:33:54;10.43;;;7.50;;
12972;SDS011;6551;51.056;9.466;2023-01-23T00:36:23;10.40;;;8.10;;
12972;SDS011;6551;51.056;9.466;2023-01-23T00:38:58;9.93;;;7.63;;
12972;SDS011;6551;51.056;9.466;2023-01-23T00:41:26;12.23;;;7.80;;
12972;SDS011;6551;51.056;9.466;2023-01-23T00:43:52;11.20;;;8.10;;
12972;SDS011;6551;51.056;9.466;2023-01-23T00:46:18;11.90;;;7.87;;
12972;SDS011;6551;51.056;9.466;2023-01-23T00:48:45;10.30;;;7.83;;
12972;SDS011;6551;51.056;9.466;2023-01-23T00:51:11;12.13;;;7.50;;
12972;SDS011;6551;51.056;9.466;2023-01-23T00:53:38;10.53;;;7.60;;
12972;SDS011;6551;51.056;9.466;2023-01-23T00:56:04;10.50;;;8.00;;
12972;SDS011;6551;51.056;9.466;2023-01-23T00:58:32;9.07;;;7.07;;
12972;SDS011;6551;51.056;9.466;2023-01-23T01:00:58;10.13;;;7.23;;
12972;SDS011;6551;51.056;9.466;2023-01-23T01:03:25;8.97;;;6.90;;
12972;SDS011;6551;51.056;9.466;2023-01-23T01:05:52;9.87;;;6.80;;
12972;SDS011;6551;51.056;9.466;2023-01-23T01:08:18;9.77;;;7.33;;
12972;SDS011;6551;51.056;9.466;2023-01-23T01:10:45;10.53;;;7.27;;
12972;SDS011;6551;51.056;9.466;2023-01-23T01:13:11;11.07;;;7.67;;
12972;SDS011;6551;51.056;9.466;2023-01-23T01:15:38;10.33;;;7.07;;
12972;SDS011;6551;51.056;9.466;2023-01-23T01:18:03;10.00;;;7.00;;
12972;SDS011;6551;51.056;9.466;2023-01-23T01:20:29;11.27;;;7.90;;
12972;SDS011;6551;51.056;9.466;2023-01-23T01:22:56;10.97;;;8.03;;
12972;SDS011;6551;51.056;9.466;2023-01-23T01:25:23;9.17;;;6.50;;
12972;SDS011;6551;51.056;9.466;2023-01-23T01:27:49;10.53;;;8.27;;
12972;SDS011;6551;51.056;9.466;2023-01-23T01:30:16;11.10;;;7.80;;
12972;SDS011;6551;51.056;9.466;2023-01-23T01:32:44;9.97;;;7.03;;
12972;SDS011;6551;51.056;9.466;2023-01-23T01:35:10;10.30;;;7.83;;
12972;SDS011;6551;51.056;9.466;2023-01-23T01:37:37;11.60;;;7.07;;
12972;SDS011;6551;51.056;9.466;2023-01-23T01:40:05;10.90;;;7.57;;
12972;SDS011;6551;51.056;9.466;2023-01-23T01:42:44;9.97;;;6.77;;
12972;SDS011;6551;51.056;9.466;2023-01-23T01:54:25;10.40;;;7.53;;
12972;SDS011;6551;51.056;9.466;2023-01-23T01:57:19;12.10;;;8.23;;
12972;SDS011;6551;51.056;9.466;2023-01-23T02:02:42;9.07;;;6.73;;
12972;SDS011;6551;51.056;9.466;2023-01-23T02:05:14;9.10;;;6.90;;
12972;SDS011;6551;51.056;9.466;2023-01-23T02:07:55;9.27;;;6.97;;
12972;SDS011;6551;51.056;9.466;2023-01-23T02:10:59;8.90;;;6.60;;
12972;SDS011;6551;51.056;9.466;2023-01-23T02:13:31;8.43;;;6.40;;
12972;SDS011;6551;51.056;9.466;2023-01-23T02:16:06;8.27;;;6.37;;
12972;SDS011;6551;51.056;9.466;2023-01-23T02:18:38;8.40;;;6.50;;
12972;SDS011;6551;51.056;9.466;2023-01-23T02:21:09;9.93;;;7.43;;
12972;SDS011;6551;51.056;9.466;2023-01-23T02:23:49;9.30;;;7.00;;
12972;SDS011;6551;51.056;9.466;2023-01-23T02:26:41;8.57;;;6.57;;
12972;SDS011;6551;51.056;9.466;2023-01-23T02:29:11;10.53;;;7.70;;
12972;SDS011;6551;51.056;9.466;2023-01-23T02:31:40;9.90;;;7.67;;
12972;SDS011;6551;51.056;9.466;2023-01-23T02:34:10;9.90;;;7.27;;
12972;SDS011;6551;51.056;9.466;2023-01-23T02:36:37;10.67;;;7.43;;
12972;SDS011;6551;51.056;9.466;2023-01-23T02:39:06;11.27;;;7.83;;
12972;SDS011;6551;51.056;9.466;2023-01-23T02:41:38;10.37;;;7.57;;
12972;SDS011;6551;51.056;9.466;2023-01-23T02:44:11;11.90;;;8.13;;
12972;SDS011;6551;51.056;9.466;2023-01-23T02:46:52;10.37;;;7.60;;
12972;SDS011;6551;51.056;9.466;2023-01-23T02:49:20;9.93;;;8.03;;
12972;SDS011;6551;51.056;9.466;2023-01-23T02:51:47;11.47;;;7.70;;
12972;SDS011;6551;51.056;9.466;2023-01-23T02:54:15;9.80;;;7.80;;
12972;SDS011;6551;51.056;9.466;2023-01-23T02:56:44;10.57;;;7.87;;
12972;SDS011;6551;51.056;9.466;2023-01-23T02:59:10;11.00;;;8.23;;
12972;SDS011;6551;51.056;9.466;2023-01-23T03:01:54;10.87;;;7.37;;
12972;SDS011;6551;51.056;9.466;2023-01-23T03:04:21;10.53;;;7.73;;
12972;SDS011;6551;51.056;9.466;2023-01-23T03:06:47;8.87;;;7.50;;
12972;SDS011;6551;51.056;9.466;2023-01-23T03:09:13;8.90;;;6.70;;
12972;SDS011;6551;51.056;9.466;2023-01-23T03:11:43;9.53;;;6.97;;
12972;SDS011;6551;51.056;9.466;2023-01-23T03:14:14;9.43;;;6.97;;
12972;SDS011;6551;51.056;9.466;2023-01-23T03:16:45;8.50;;;6.03;;
12972;SDS011;6551;51.056;9.466;2023-01-23T03:19:17;8.17;;;5.23;;
12972;SDS011;6551;51.056;9.466;2023-01-23T03:21:58;7.40;;;5.43;;
12972;SDS011;6551;51.056;9.466;2023-01-23T03:24:23;6.37;;;4.87;;
12972;SDS011;6551;51.056;9.466;2023-01-23T03:26:49;6.73;;;5.20;;
12972;SDS011;6551;51.056;9.466;2023-01-23T03:29:19;6.27;;;4.63;;
12972;SDS011;6551;51.056;9.466;2023-01-23T03:32:06;6.67;;;5.30;;
12972;SDS011;6551;51.056;9.466;2023-01-23T03:34:34;5.73;;;4.70;;
12972;SDS011;6551;51.056;9.466;2023-01-23T03:37:00;6.23;;;5.00;;
12972;SDS011;6551;51.056;9.466;2023-01-23T03:39:27;6.37;;;4.30;;
12972;SDS011;6551;51.056;9.466;2023-01-23T03:42:12;6.97;;;5.20;;
12972;SDS011;6551;51.056;9.466;2023-01-23T03:44:37;5.03;;;4.03;;
12972;SDS011;6551;51.056;9.466;2023-01-23T03:47:03;6.67;;;4.70;;
12972;SDS011;6551;51.056;9.466;2023-01-23T03:49:29;5.50;;;4.30;;
12972;SDS011;6551;51.056;9.466;2023-01-23T03:51:57;5.83;;;4.37;;
12972;SDS011;6551;51.056;9.466;2023-01-23T03:54:23;6.47;;;4.60;;
12972;SDS011;6551;51.056;9.466;2023-01-23T03:56:49;7.30;;;5.13;;
12972;SDS011;6551;51.056;9.466;2023-01-23T03:59:15;6.87;;;4.43;;
12972;SDS011;6551;51.056;9.466;2023-01-23T04:01:41;6.87;;;4.97;;
12972;SDS011;6551;51.056;9.466;2023-01-23T04:04:07;5.73;;;4.50;;
12972;SDS011;6551;51.056;9.466;2023-01-23T04:06:34;5.27;;;4.23;;
12972;SDS011;6551;51.056;9.466;2023-01-23T04:08:59;5.60;;;4.23;;
12972;SDS011;6551;51.056;9.466;2023-01-23T04:11:26;5.50;;;4.00;;
12972;SDS011;6551;51.056;9.466;2023-01-23T04:13:52;3.63;;;3.00;;
12972;SDS011;6551;51.056;9.466;2023-01-23T04:16:20;5.10;;;4.10;;
12972;SDS011;6551;51.056;9.466;2023-01-23T04:18:48;3.27;;;2.93;;
12972;SDS011;6551;51.056;9.466;2023-01-23T04:21:14;3.90;;;3.13;;
12972;SDS011;6551;51.056;9.466;2023-01-23T04:23:40;6.33;;;3.90;;
12972;SDS011;6551;51.056;9.466;2023-01-23T04:26:06;4.33;;;3.20;;
12972;SDS011;6551;51.056;9.466;2023-01-23T04:28:33;4.97;;;3.97;;
12972;SDS011;6551;51.056;9.466;2023-01-23T04:31:01;5.33;;;4.13;;
12972;SDS011;6551;51.056;9.466;2023-01-23T04:33:28;4.70;;;4.00;;
12972;SDS011;6551;51.056;9.466;2023-01-23T04:35:55;4.43;;;3.80;;
12972;SDS011;6551;51.056;9.466;2023-01-23T04:38:29;5.03;;;4.00;;
12972;SDS011;6551;51.056;9.466;2023-01-23T04:40:55;5.13;;;4.07;;
12972;SDS011;6551;51.056;9.466;2023-01-23T04:43:21;5.23;;;4.33;;
12972;SDS011;6551;51.056;9.466;2023-01-23T04:45:52;5.03;;;4.30;;
12972;SDS011;6551;51.056;9.466;2023-01-23T04:48:20;5.00;;;4.30;;
12972;SDS011;6551;51.056;9.466;2023-01-23T04:50:47;5.67;;;4.60;;
12972;SDS011;6551;51.056;9.466;2023-01-23T04:53:13;6.17;;;4.30;;
12972;SDS011;6551;51.056;9.466;2023-01-23T04:55:41;7.20;;;5.23;;
12972;SDS011;6551;51.056;9.466;2023-01-23T04:58:07;7.53;;;4.43;;
12972;SDS011;6551;51.056;9.466;2023-01-23T05:00:35;4.90;;;4.37;;
12972;SDS011;6551;51.056;9.466;2023-01-23T05:03:02;5.57;;;4.27;;
12972;SDS011;6551;51.056;9.466;2023-01-23T05:05:30;5.10;;;4.40;;
12972;SDS011;6551;51.056;9.466;2023-01-23T05:07:56;5.57;;;4.23;;
12972;SDS011;6551;51.056;9.466;2023-01-23T05:10:23;5.20;;;4.03;;
12972;SDS011;6551;51.056;9.466;2023-01-23T05:12:49;5.50;;;4.17;;
12972;SDS011;6551;51.056;9.466;2023-01-23T05:15:14;7.57;;;3.97;;
12972;SDS011;6551;51.056;9.466;2023-01-23T05:17:41;5.33;;;4.27;;
12972;SDS011;6551;51.056;9.466;2023-01-23T05:20:07;5.67;;;4.53;;
12972;SDS011;6551;51.056;9.466;2023-01-23T05:22:36;6.63;;;4.00;;
12972;SDS011;6551;51.056;9.466;2023-01-23T05:25:04;6.00;;;4.13;;
12972;SDS011;6551;51.056;9.466;2023-01-23T05:27:30;4.70;;;3.90;;
12972;SDS011;6551;51.056;9.466;2023-01-23T05:29:56;5.53;;;4.27;;
12972;SDS011;6551;51.056;9.466;2023-01-23T05:32:23;5.27;;;4.27;;
12972;SDS011;6551;51.056;9.466;2023-01-23T05:34:48;5.37;;;4.10;;
12972;SDS011;6551;51.056;9.466;2023-01-23T05:37:14;6.00;;;4.60;;
12972;SDS011;6551;51.056;9.466;2023-01-23T05:39:41;8.17;;;4.60;;
12972;SDS011;6551;51.056;9.466;2023-01-23T05:42:07;7.03;;;5.27;;
12972;SDS011;6551;51.056;9.466;2023-01-23T05:44:34;5.50;;;4.40;;
12972;SDS011;6551;51.056;9.466;2023-01-23T05:47:00;6.50;;;4.80;;
12972;SDS011;6551;51.056;9.466;2023-01-23T05:49:26;7.10;;;5.60;;
12972;SDS011;6551;51.056;9.466;2023-01-23T05:51:53;7.40;;;5.30;;
12972;SDS011;6551;51.056;9.466;2023-01-23T05:54:19;7.03;;;4.40;;
12972;SDS011;6551;51.056;9.466;2023-01-23T05:56:44;6.87;;;5.40;;
12972;SDS011;6551;51.056;9.466;2023-01-23T05:59:11;6.73;;;5.60;;
12972;SDS011;6551;51.056;9.466;2023-01-23T06:01:37;8.03;;;5.70;;
12972;SDS011;6551;51.056;9.466;2023-01-23T06:04:04;7.87;;;6.23;;
12972;SDS011;6551;51.056;9.466;2023-01-23T06:06:30;6.50;;;5.13;;
12972;SDS011;6551;51.056;9.466;2023-01-23T06:09:00;7.87;;;5.67;;
12972;SDS011;6551;51.056;9.466;2023-01-23T06:11:27;7.47;;;5.60;;
12972;SDS011;6551;51.056;9.466;2023-01-23T06:13:53;7.70;;;6.17;;
12972;SDS011;6551;51.056;9.466;2023-01-23T06:16:18;7.80;;;5.80;;
12972;SDS011;6551;51.056;9.466;2023-01-23T06:18:45;8.40;;;6.27;;
12972;SDS011;6551;51.056;9.466;2023-01-23T06:21:11;10.37;;;7.17;;
12972;SDS011;6551;51.056;9.466;2023-01-23T06:23:37;12.70;;;8.27;;
12972;SDS011;6551;51.056;9.466;2023-01-23T06:26:03;11.40;;;8.03;;
12972;SDS011;6551;51.056;9.466;2023-01-23T06:28:29;9.00;;;6.50;;
12972;SDS011;6551;51.056;9.466;2023-01-23T06:30:58;10.13;;;7.70;;
12972;SDS011;6551;51.056;9.466;2023-01-23T06:33:26;10.63;;;7.73;;
12972;SDS011;6551;51.056;9.466;2023-01-23T06:35:56;11.20;;;7.67;;
12972;SDS011;6551;51.056;9.466;2023-01-23T06:38:26;10.30;;;7.93;;
12972;SDS011;6551;51.056;9.466;2023-01-23T06:41:12;10.37;;;7.70;;
12972;SDS011;6551;51.056;9.466;2023-01-23T06:43:37;12.33;;;8.07;;
12972;SDS011;6551;51.056;9.466;2023-01-23T06:46:06;9.00;;;7.10;;
12972;SDS011;6551;51.056;9.466;2023-01-23T06:48:37;11.70;;;8.50;;
12972;SDS011;6551;51.056;9.466;2023-01-23T06:51:04;12.00;;;7.80;;
12972;SDS011;6551;51.056;9.466;2023-01-23T06:53:30;10.80;;;7.80;;
12972;SDS011;6551;51.056;9.466;2023-01-23T06:56:00;11.00;;;7.43;;
12972;SDS011;6551;51.056;9.466;2023-01-23T06:58:29;12.50;;;8.17;;
12972;SDS011;6551;51.056;9.466;2023-01-23T07:00:55;10.90;;;8.03;;
12972;SDS011;6551;51.056;9.466;2023-01-23T07:03:21;11.23;;;8.03;;
12972;SDS011;6551;51.056;9.466;2023-01-23T07:05:47;10.83;;;7.17;;
12972;SDS011;6551;51.056;9.466;2023-01-23T07:08:15;13.33;;;8.03;;
12972;SDS011;6551;51.056;9.466;2023-01-23T07:10:41;12.40;;;9.63;;
12972;SDS011;6551;51.056;9.466;2023-01-23T07:13:07;11.90;;;7.97;;
12972;SDS011;6551;51.056;9.466;2023-01-23T07:15:37;10.60;;;7.00;;
12972;SDS011;6551;51.056;9.466;2023-01-23T07:18:04;13.63;;;8.37;;
12972;SDS011;6551;51.056;9.466;2023-01-23T07:20:30;11.10;;;8.23;;
12972;SDS011;6551;51.056;9.466;2023-01-23T07:22:56;9.63;;;7.37;;
12972;SDS011;6551;51.056;9.466;2023-01-23T07:25:22;11.50;;;7.80;;
12972;SDS011;6551;51.056;9.466;2023-01-23T07:27:50;9.07;;;6.33;;
12972;SDS011;6551;51.056;9.466;2023-01-23T07:30:17;11.80;;;7.53;;
12972;SDS011;6551;51.056;9.466;2023-01-23T07:32:43;13.77;;;8.77;;
12972;SDS011;6551;51.056;9.466;2023-01-23T07:35:09;22.50;;;12.93;;
12972;SDS011;6551;51.056;9.466;2023-01-23T07:37:36;14.27;;;9.13;;
12972;SDS011;6551;51.056;9.466;2023-01-23T07:40:03;15.80;;;9.87;;
12972;SDS011;6551;51.056;9.466;2023-01-23T07:42:29;13.70;;;9.63;;
12972;SDS011;6551;51.056;9.466;2023-01-23T07:44:56;12.93;;;8.60;;
12972;SDS011;6551;51.056;9.466;2023-01-23T07:47:22;13.10;;;8.67;;
12972;SDS011;6551;51.056;9.466;2023-01-23T07:49:47;12.67;;;9.40;;
12972;SDS011;6551;51.056;9.466;2023-01-23T07:52:14;12.40;;;9.33;;
12972;SDS011;6551;51.056;9.466;2023-01-23T07:54:41;13.37;;;9.27;;
12972;SDS011;6551;51.056;9.466;2023-01-23T07:57:07;13.43;;;9.50;;
12972;SDS011;6551;51.056;9.466;2023-01-23T07:59:34;14.77;;;9.33;;
12972;SDS011;6551;51.056;9.466;2023-01-23T08:01:59;12.77;;;8.70;;
12972;SDS011;6551;51.056;9.466;2023-01-23T08:04:25;14.40;;;9.23;;
12972;SDS011;6551;51.056;9.466;2023-01-23T08:06:51;13.00;;;9.10;;
12972;SDS011;6551;51.056;9.466;2023-01-23T08:09:17;13.23;;;9.40;;
12972;SDS011;6551;51.056;9.466;2023-01-23T08:11:44;11.97;;;8.33;;
12972;SDS011;6551;51.056;9.466;2023-01-23T08:14:10;10.33;;;7.60;;
12972;SDS011;6551;51.056;9.466;2023-01-23T08:16:36;13.93;;;8.87;;
12972;SDS011;6551;51.056;9.466;2023-01-23T08:19:06;13.43;;;9.07;;
12972;SDS011;6551;51.056;9.466;2023-01-23T08:21:32;15.70;;;10.47;;
12972;SDS011;6551;51.056;9.466;2023-01-23T08:23:59;12.80;;;9.10;;
12972;SDS011;6551;51.056;9.466;2023-01-23T08:26:26;12.50;;;8.97;;
12972;SDS011;6551;51.056;9.466;2023-01-23T08:28:52;15.17;;;10.20;;
12972;SDS011;6551;51.056;9.466;2023-01-23T08:31:19;13.97;;;10.37;;
12972;SDS011;6551;51.056;9.466;2023-01-23T08:33:46;18.17;;;13.73;;
12972;SDS011;6551;51.056;9.466;2023-01-23T08:36:12;17.30;;;11.33;;
12972;SDS011;6551;51.056;9.466;2023-01-23T08:38:38;13.43;;;9.40;;
12972;SDS011;6551;51.056;9.466;2023-01-23T08:41:04;14.00;;;9.83;;
12972;SDS011;6551;51.056;9.466;2023-01-23T08:43:31;14.60;;;9.83;;
12972;SDS011;6551;51.056;9.466;2023-01-23T08:45:57;13.80;;;9.53;;
12972;SDS011;6551;51.056;9.466;2023-01-23T08:48:24;11.97;;;8.53;;
12972;SDS011;6551;51.056;9.466;2023-01-23T08:50:51;14.80;;;10.53;;
12972;SDS011;6551;51.056;9.466;2023-01-23T08:53:25;14.87;;;10.30;;
12972;SDS011;6551;51.056;9.466;2023-01-23T08:55:51;14.00;;;10.43;;
12972;SDS011;6551;51.056;9.466;2023-01-23T08:58:18;18.77;;;12.00;;
12972;SDS011;6551;51.056;9.466;2023-01-23T09:00:46;25.37;;;16.13;;
12972;SDS011;6551;51.056;9.466;2023-01-23T09:03:12;12.43;;;8.90;;
12972;SDS011;6551;51.056;9.466;2023-01-23T09:05:39;12.67;;;8.67;;
12972;SDS011;6551;51.056;9.466;2023-01-23T09:08:05;11.50;;;8.20;;
12972;SDS011;6551;51.056;9.466;2023-01-23T09:10:30;14.87;;;9.77;;
12972;SDS011;6551;51.056;9.466;2023-01-23T09:12:56;15.33;;;10.20;;
12972;SDS011;6551;51.056;9.466;2023-01-23T09:15:22;15.47;;;10.10;;
12972;SDS011;6551;51.056;9.466;2023-01-23T09:17:48;24.83;;;14.27;;
12972;SDS011;6551;51.056;9.466;2023-01-23T09:20:15;19.73;;;12.73;;
12972;SDS011;6551;51.056;9.466;2023-01-23T09:22:41;16.90;;;10.80;;
12972;SDS011;6551;51.056;9.466;2023-01-23T09:25:09;14.93;;;9.23;;
12972;SDS011;6551;51.056;9.466;2023-01-23T09:27:35;13.70;;;9.07;;
12972;SDS011;6551;51.056;9.466;2023-01-23T09:30:03;14.20;;;9.40;;
12972;SDS011;6551;51.056;9.466;2023-01-23T09:32:31;11.23;;;7.60;;
12972;SDS011;6551;51.056;9.466;2023-01-23T09:34:56;26.53;;;14.73;;
12972;SDS011;6551;51.056;9.466;2023-01-23T09:37:22;13.87;;;9.50;;
12972;SDS011;6551;51.056;9.466;2023-01-23T09:39:47;11.27;;;8.30;;
12972;SDS011;6551;51.056;9.466;2023-01-23T09:42:16;17.80;;;11.83;;
12972;SDS011;6551;51.056;9.466;2023-01-23T09:44:52;24.73;;;13.70;;
12972;SDS011;6551;51.056;9.466;2023-01-23T09:47:25;19.23;;;11.83;;
12972;SDS011;6551;51.056;9.466;2023-01-23T09:50:19;18.83;;;11.67;;
12972;SDS011;6551;51.056;9.466;2023-01-23T09:53:19;19.40;;;13.53;;
12972;SDS011;6551;51.056;9.466;2023-01-23T10:01:25;20.07;;;12.23;;
12972;SDS011;6551;51.056;9.466;2023-01-23T10:03:55;16.90;;;12.07;;
12972;SDS011;6551;51.056;9.466;2023-01-23T10:06:25;15.67;;;11.23;;
12972;SDS011;6551;51.056;9.466;2023-01-23T10:23:18;12.33;;;8.13;;
12972;SDS011;6551;51.056;9.466;2023-01-23T10:25:48;12.67;;;8.33;;
12972;SDS011;6551;51.056;9.466;2023-01-23T10:31:46;11.50;;;7.87;;
12972;SDS011;6551;51.056;9.466;2023-01-23T10:34:09;12.80;;;8.97;;
12972;SDS011;6551;51.056;9.466;2023-01-23T10:39:44;17.40;;;9.73;;
12972;SDS011;6551;51.056;9.466;2023-01-23T10:42:27;15.63;;;10.60;;
12972;SDS011;6551;51.056;9.466;2023-01-23T10:44:53;15.73;;;10.67;;
12972;SDS011;6551;51.056;9.466;2023-01-23T10:50:06;19.10;;;10.77;;
12972;SDS011;6551;51.056;9.466;2023-01-23T10:55:24;19.10;;;10.70;;
12972;SDS011;6551;51.056;9.466;2023-01-23T10:57:59;17.07;;;11.47;;
12972;SDS011;6551;51.056;9.466;2023-01-23T11:00:46;15.43;;;10.10;;
12972;SDS011;6551;51.056;9.466;2023-01-23T11:05:52;15.83;;;11.07;;
12972;SDS011;6551;51.056;9.466;2023-01-23T11:11:26;18.53;;;11.97;;
12972;SDS011;6551;51.056;9.466;2023-01-23T11:14:09;16.77;;;10.43;;
12972;SDS011;6551;51.056;9.466;2023-01-23T11:16:40;18.33;;;11.23;;
12972;SDS011;6551;51.056;9.466;2023-01-23T11:21:56;19.47;;;12.07;;
12972;SDS011;6551;51.056;9.466;2023-01-23T11:24:33;16.17;;;10.20;;
12972;SDS011;6551;51.056;9.466;2023-01-23T11:33:13;19.43;;;11.70;;
12972;SDS011;6551;51.056;9.466;2023-01-23T11:38:48;18.63;;;11.03;;
12972;SDS011;6551;51.056;9.466;2023-01-23T11:41:19;18.80;;;11.07;;
12972;SDS011;6551;51.056;9.466;2023-01-23T11:43:54;15.97;;;10.00;;
12972;SDS011;6551;51.056;9.466;2023-01-23T11:46:27;17.17;;;10.67;;
12972;SDS011;6551;51.056;9.466;2023-01-23T12:13:02;16.63;;;8.83;;
12972;SDS011;6551;51.056;9.466;2023-01-23T12:15:53;12.80;;;9.07;;
12972;SDS011;6551;51.056;9.466;2023-01-23T12:21:50;11.67;;;7.83;;
12972;SDS011;6551;51.056;9.466;2023-01-23T12:27:21;13.70;;;7.33;;
12972;SDS011;6551;51.056;9.466;2023-01-23T12:33:22;20.87;;;10.03;;
12972;SDS011;6551;51.056;9.466;2023-01-23T12:36:46;14.83;;;8.33;;
12972;SDS011;6551;51.056;9.466;2023-01-23T12:42:39;12.90;;;7.70;;
12972;SDS011;6551;51.056;9.466;2023-01-23T12:45:27;12.40;;;8.13;;
12972;SDS011;6551;51.056;9.466;2023-01-23T12:53:43;11.43;;;7.63;;
12972;SDS011;6551;51.056;9.466;2023-01-23T12:56:19;9.53;;;6.73;;
12972;SDS011;6551;51.056;9.466;2023-01-23T13:09:49;11.40;;;7.60;;
12972;SDS011;6551;51.056;9.466;2023-01-23T13:12:43;17.40;;;9.10;;
12972;SDS011;6551;51.056;9.466;2023-01-23T13:15:19;23.00;;;13.83;;
12972;SDS011;6551;51.056;9.466;2023-01-23T13:20:26;9.47;;;6.47;;
12972;SDS011;6551;51.056;9.466;2023-01-23T13:23:36;9.53;;;5.93;;
12972;SDS011;6551;51.056;9.466;2023-01-23T13:28:47;8.23;;;6.07;;
12972;SDS011;6551;51.056;9.466;2023-01-23T13:36:46;9.93;;;6.80;;
12972;SDS011;6551;51.056;9.466;2023-01-23T13:39:26;9.37;;;6.33;;
12972;SDS011;6551;51.056;9.466;2023-01-23T13:47:59;11.67;;;7.73;;
12972;SDS011;6551;51.056;9.466;2023-01-23T13:50:49;12.87;;;7.83;;
12972;SDS011;6551;51.056;9.466;2023-01-23T13:53:24;9.80;;;7.83;;
12972;SDS011;6551;51.056;9.466;2023-01-23T13:56:10;12.30;;;8.90;;
12972;SDS011;6551;51.056;9.466;2023-01-23T13:59:08;10.73;;;7.70;;
12972;SDS011;6551;51.056;9.466;2023-01-23T14:02:06;12.90;;;7.33;;
12972;SDS011;6551;51.056;9.466;2023-01-23T14:05:21;11.50;;;8.00;;
12972;SDS011;6551;51.056;9.466;2023-01-23T14:08:01;11.23;;;7.60;;
12972;SDS011;6551;51.056;9.466;2023-01-23T14:10:33;11.17;;;7.63;;
12972;SDS011;6551;51.056;9.466;2023-01-23T14:15:27;12.80;;;8.00;;
12972;SDS011;6551;51.056;9.466;2023-01-23T14:18:21;11.97;;;7.10;;
12972;SDS011;6551;51.056;9.466;2023-01-23T14:21:02;10.53;;;7.60;;
12972;SDS011;6551;51.056;9.466;2023-01-23T14:23:38;14.47;;;9.33;;
12972;SDS011;6551;51.056;9.466;2023-01-23T14:26:07;14.03;;;8.97;;
12972;SDS011;6551;51.056;9.466;2023-01-23T14:28:48;16.07;;;9.87;;
12972;SDS011;6551;51.056;9.466;2023-01-23T14:31:42;20.30;;;10.77;;
12972;SDS011;6551;51.056;9.466;2023-01-23T14:34:21;21.07;;;11.50;;
12972;SDS011;6551;51.056;9.466;2023-01-23T14:39:31;28.83;;;12.10;;
12972;SDS011;6551;51.056;9.466;2023-01-23T14:42:01;17.87;;;9.77;;
12972;SDS011;6551;51.056;9.466;2023-01-23T14:44:33;38.23;;;13.73;;
12972;SDS011;6551;51.056;9.466;2023-01-23T14:47:10;33.30;;;12.63;;
12972;SDS011;6551;51.056;9.466;2023-01-23T14:50:19;16.33;;;9.97;;
12972;SDS011;6551;51.056;9.466;2023-01-23T14:53:01;18.30;;;10.40;;
12972;SDS011;6551;51.056;9.466;2023-01-23T14:55:33;17.83;;;10.60;;
12972;SDS011;6551;51.056;9.466;2023-01-23T14:58:06;13.23;;;8.87;;
12972;SDS011;6551;51.056;9.466;2023-01-23T15:00:48;16.97;;;10.63;;
12972;SDS011;6551;51.056;9.466;2023-01-23T15:06:13;9.87;;;6.17;;
12972;SDS011;6551;51.056;9.466;2023-01-23T15:08:44;10.53;;;6.70;;
12972;SDS011;6551;51.056;9.466;2023-01-23T15:11:11;21.53;;;14.40;;
12972;SDS011;6551;51.056;9.466;2023-01-23T15:13:47;10.40;;;7.50;;
12972;SDS011;6551;51.056;9.466;2023-01-23T15:16:26;11.53;;;8.27;;
12972;SDS011;6551;51.056;9.466;2023-01-23T15:19:15;7.70;;;6.30;;
12972;SDS011;6551;51.056;9.466;2023-01-23T15:21:46;10.20;;;7.50;;
12972;SDS011;6551;51.056;9.466;2023-01-23T15:26:43;10.87;;;8.27;;
12972;SDS011;6551;51.056;9.466;2023-01-23T15:29:21;9.97;;;6.93;;
12972;SDS011;6551;51.056;9.466;2023-01-23T15:31:49;10.40;;;7.57;;
12972;SDS011;6551;51.056;9.466;2023-01-23T15:34:24;16.30;;;9.30;;
12972;SDS011;6551;51.056;9.466;2023-01-23T15:37:45;10.27;;;7.03;;
12972;SDS011;6551;51.056;9.466;2023-01-23T15:39:52;11.40;;;7.80;;
12972;SDS011;6551;51.056;9.466;2023-01-23T15:42:31;10.27;;;7.57;;
12972;SDS011;6551;51.056;9.466;2023-01-23T15:44:59;10.07;;;7.80;;
12972;SDS011;6551;51.056;9.466;2023-01-23T15:47:30;11.87;;;7.63;;
12972;SDS011;6551;51.056;9.466;2023-01-23T15:49:59;9.27;;;6.37;;
12972;SDS011;6551;51.056;9.466;2023-01-23T15:55:13;15.17;;;8.17;;
12972;SDS011;6551;51.056;9.466;2023-01-23T15:57:41;15.20;;;7.30;;
12972;SDS011;6551;51.056;9.466;2023-01-23T16:02:44;9.43;;;6.93;;
12972;SDS011;6551;51.056;9.466;2023-01-23T16:05:12;10.83;;;7.07;;
12972;SDS011;6551;51.056;9.466;2023-01-23T16:07:40;8.73;;;6.10;;
12972;SDS011;6551;51.056;9.466;2023-01-23T16:12:48;8.20;;;6.23;;
12972;SDS011;6551;51.056;9.466;2023-01-23T16:15:21;7.60;;;5.37;;
12972;SDS011;6551;51.056;9.466;2023-01-23T16:17:52;7.70;;;6.07;;
12972;SDS011;6551;51.056;9.466;2023-01-23T16:20:22;9.10;;;6.90;;
12972;SDS011;6551;51.056;9.466;2023-01-23T16:23:12;11.27;;;8.33;;
12972;SDS011;6551;51.056;9.466;2023-01-23T16:25:45;9.13;;;7.13;;
12972;SDS011;6551;51.056;9.466;2023-01-23T16:28:19;8.00;;;6.37;;
12972;SDS011;6551;51.056;9.466;2023-01-23T16:30:49;6.30;;;5.43;;
12972;SDS011;6551;51.056;9.466;2023-01-23T16:33:15;10.07;;;6.90;;
12972;SDS011;6551;51.056;9.466;2023-01-23T16:35:43;8.73;;;5.30;;
12972;SDS011;6551;51.056;9.466;2023-01-23T16:38:13;9.10;;;6.47;;
12972;SDS011;6551;51.056;9.466;2023-01-23T16:40:51;10.50;;;5.97;;
12972;SDS011;6551;51.056;9.466;2023-01-23T16:43:18;9.77;;;7.13;;
12972;SDS011;6551;51.056;9.466;2023-01-23T16:45:46;9.13;;;7.40;;
12972;SDS011;6551;51.056;9.466;2023-01-23T16:48:12;10.67;;;7.13;;
12972;SDS011;6551;51.056;9.466;2023-01-23T16:50:41;10.27;;;6.33;;
12972;SDS011;6551;51.056;9.466;2023-01-23T16:55:40;13.03;;;8.57;;
12972;SDS011;6551;51.056;9.466;2023-01-23T16:58:12;12.63;;;8.30;;
12972;SDS011;6551;51.056;9.466;2023-01-23T17:00:45;11.73;;;8.40;;
12972;SDS011;6551;51.056;9.466;2023-01-23T17:03:12;10.10;;;7.70;;
12972;SDS011;6551;51.056;9.466;2023-01-23T17:05:46;9.90;;;7.17;;
12972;SDS011;6551;51.056;9.466;2023-01-23T17:10:43;8.87;;;6.27;;
12972;SDS011;6551;51.056;9.466;2023-01-23T17:13:23;7.77;;;6.23;;
12972;SDS011;6551;51.056;9.466;2023-01-23T17:15:52;8.57;;;6.60;;
12972;SDS011;6551;51.056;9.466;2023-01-23T17:18:24;9.27;;;6.40;;
12972;SDS011;6551;51.056;9.466;2023-01-23T17:20:53;10.20;;;6.73;;
12972;SDS011;6551;51.056;9.466;2023-01-23T17:23:20;9.90;;;7.60;;
12972;SDS011;6551;51.056;9.466;2023-01-23T17:25:47;13.70;;;9.80;;
12972;SDS011;6551;51.056;9.466;2023-01-23T17:28:16;10.67;;;8.13;;
12972;SDS011;6551;51.056;9.466;2023-01-23T17:30:45;12.67;;;8.37;;
12972;SDS011;6551;51.056;9.466;2023-01-23T17:33:23;12.77;;;9.10;;
12972;SDS011;6551;51.056;9.466;2023-01-23T17:35:51;13.00;;;9.20;;
12972;SDS011;6551;51.056;9.466;2023-01-23T17:40:50;12.57;;;8.43;;
12972;SDS011;6551;51.056;9.466;2023-01-23T17:43:17;9.63;;;7.23;;
12972;SDS011;6551;51.056;9.466;2023-01-23T17:45:46;14.23;;;9.03;;
12972;SDS011;6551;51.056;9.466;2023-01-23T17:48:15;11.20;;;8.07;;
12972;SDS011;6551;51.056;9.466;2023-01-23T17:50:53;11.00;;;7.47;;